createdAt,value
2023-01-19T00:00:31.125Z,10.82
2023-01-19T00:02:57.631Z,10.55
2023-01-19T00:05:24.032Z,10.80
2023-01-19T00:07:50.358Z,10.45
2023-01-19T00:10:17.115Z,10.07
2023-01-19T00:12:43.491Z,10.07
2023-01-19T00:15:10.374Z,9.55
2023-01-19T00:17:36.719Z,10.32
2023-01-19T00:20:03.865Z,10.75
2023-01-19T00:22:30.246Z,10.63
2023-01-19T00:24:56.551Z,11.23
2023-01-19T00:27:23.306Z,11.63
2023-01-19T00:29:49.623Z,10.93
2023-01-19T00:32:20.339Z,10.35
2023-01-19T00:34:49.492Z,11.02
2023-01-19T00:37:16.719Z,10.27
2023-01-19T00:39:43.570Z,11.43
2023-01-19T00:42:31.284Z,10.63
2023-01-19T00:44:57.877Z,11.30
2023-01-19T00:47:24.889Z,11.00
2023-01-19T00:49:51.272Z,11.45
2023-01-19T00:52:17.588Z,11.00
2023-01-19T00:54:43.931Z,11.25
2023-01-19T00:57:10.295Z,12.93
2023-01-19T00:59:36.652Z,12.35
2023-01-19T01:02:03.249Z,11.38
2023-01-19T01:04:30.040Z,12.10
2023-01-19T01:06:56.369Z,12.57
2023-01-19T01:09:23.473Z,12.40
2023-01-19T01:11:50.169Z,11.75
2023-01-19T01:14:17.588Z,12.18
2023-01-19T01:16:43.958Z,12.80
2023-01-19T01:19:10.381Z,13.38
2023-01-19T01:21:37.249Z,13.13
2023-01-19T01:24:04.267Z,13.27
2023-01-19T01:26:30.597Z,12.95
2023-01-19T01:28:56.941Z,14.38
2023-01-19T01:31:23.369Z,14.10
2023-01-19T01:33:49.726Z,13.70
2023-01-19T01:36:16.378Z,13.35
2023-01-19T01:38:42.712Z,14.57
2023-01-19T01:41:09.159Z,13.30
2023-01-19T01:43:43.614Z,15.10
2023-01-19T01:46:11.059Z,14.15
2023-01-19T01:48:39.286Z,14.00
2023-01-19T01:51:26.348Z,14.90
2023-01-19T01:54:29.193Z,14.40
2023-01-19T01:57:01.061Z,10.38
2023-01-19T01:59:38.990Z,13.95
2023-01-19T02:02:28.536Z,14.20
2023-01-19T02:05:00.534Z,13.93
2023-01-19T02:07:51.328Z,14.60
2023-01-19T02:10:36.511Z,14.20
2023-01-19T02:13:19.441Z,13.63
2023-01-19T02:15:47.205Z,15.88
2023-01-19T02:18:14.079Z,15.85
2023-01-19T02:20:44.953Z,15.43
2023-01-19T02:23:20.662Z,15.75
2023-01-19T02:25:49.114Z,15.45
2023-01-19T02:28:15.704Z,15.48
2023-01-19T02:30:42.755Z,16.02
2023-01-19T02:33:09.396Z,16.63
2023-01-19T02:35:38.464Z,15.38
2023-01-19T02:38:06.435Z,16.85
2023-01-19T02:40:34.776Z,16.52
2023-01-19T02:43:03.341Z,16.20
2023-01-19T02:45:30.615Z,16.25
2023-01-19T02:47:57.084Z,16.15
2023-01-19T02:50:49.689Z,16.52
2023-01-19T02:53:38.030Z,16.38
2023-01-19T02:56:24.878Z,17.98
2023-01-19T02:59:06.472Z,17.70
2023-01-19T03:02:09.982Z,16.40
2023-01-19T03:07:14.307Z,14.93
2023-01-19T03:09:52.635Z,17.55
2023-01-19T03:12:40.762Z,18.73
2023-01-19T03:15:32.939Z,16.60
2023-01-19T03:18:02.033Z,16.48
2023-01-19T03:20:29.075Z,17.50
2023-01-19T03:23:02.077Z,17.35
2023-01-19T03:25:34.561Z,18.08
2023-01-19T03:28:01.887Z,17.30
2023-01-19T03:30:37.468Z,16.85
2023-01-19T03:33:11.719Z,18.35
2023-01-19T03:35:43.464Z,18.08
2023-01-19T03:38:14.844Z,17.75
2023-01-19T03:40:41.776Z,16.25
2023-01-19T03:43:09.011Z,16.17
2023-01-19T03:45:39.070Z,16.42
2023-01-19T03:48:06.585Z,18.33
2023-01-19T03:50:33.252Z,19.23
2023-01-19T03:53:11.685Z,18.05
2023-01-19T03:55:40.621Z,19.50
2023-01-19T03:58:07.221Z,18.20
2023-01-19T04:00:34.317Z,18.52
2023-01-19T04:03:01.075Z,20.25
2023-01-19T04:05:27.818Z,18.33
2023-01-19T04:07:54.894Z,18.05
2023-01-19T04:10:22.353Z,18.00
2023-01-19T04:12:49.212Z,17.83
2023-01-19T04:15:15.873Z,18.98
2023-01-19T04:17:42.360Z,17.95
2023-01-19T04:20:09.438Z,17.75
2023-01-19T04:22:35.882Z,18.95
2023-01-19T04:25:02.968Z,19.13
2023-01-19T04:27:29.492Z,19.00
2023-01-19T04:29:55.853Z,17.77
2023-01-19T04:32:22.305Z,19.08
2023-01-19T04:34:48.803Z,17.10
2023-01-19T04:37:15.271Z,17.33
2023-01-19T04:39:41.742Z,19.05
2023-01-19T04:42:08.183Z,16.95
2023-01-19T04:44:34.717Z,16.90
2023-01-19T04:47:02.008Z,17.13
2023-01-19T04:49:28.410Z,19.33
2023-01-19T04:51:55.154Z,17.60
2023-01-19T04:54:22.154Z,18.42
2023-01-19T04:56:48.973Z,17.60
2023-01-19T04:59:15.514Z,17.95
2023-01-19T05:01:42.052Z,18.13
2023-01-19T05:04:09.107Z,17.40
2023-01-19T05:06:35.732Z,18.88
2023-01-19T05:09:02.261Z,18.45
2023-01-19T05:11:28.700Z,19.35
2023-01-19T05:13:55.241Z,18.85
2023-01-19T05:16:21.680Z,18.05
2023-01-19T05:18:48.378Z,19.85
2023-01-19T05:21:14.854Z,18.33
2023-01-19T05:23:41.293Z,18.00
2023-01-19T05:26:09.650Z,18.05
2023-01-19T05:28:37.969Z,18.23
2023-01-19T05:31:04.774Z,17.90
2023-01-19T05:33:31.827Z,17.55
2023-01-19T05:35:58.200Z,17.23
2023-01-19T05:38:34.657Z,17.13
2023-01-19T05:41:02.705Z,16.48
2023-01-19T05:43:29.503Z,15.45
2023-01-19T05:45:56.005Z,15.80
2023-01-19T05:48:22.643Z,14.60
2023-01-19T05:50:49.516Z,14.95
2023-01-19T05:53:17.201Z,12.80
2023-01-19T05:55:43.759Z,13.80
2023-01-19T05:58:10.757Z,13.25
2023-01-19T06:00:37.301Z,12.57
2023-01-19T06:03:04.402Z,12.95
2023-01-19T06:05:31.229Z,13.55
2023-01-19T06:07:57.748Z,13.02
2023-01-19T06:10:24.232Z,12.40
2023-01-19T06:12:52.443Z,12.65
2023-01-19T06:15:19.257Z,11.75
2023-01-19T06:17:45.819Z,11.38
2023-01-19T06:20:14.081Z,11.27
2023-01-19T06:22:40.694Z,10.13
2023-01-19T06:25:07.733Z,9.52
2023-01-19T06:27:34.444Z,10.43
2023-01-19T06:30:00.873Z,9.23
2023-01-19T06:32:27.445Z,8.80
2023-01-19T06:34:54.256Z,9.05
2023-01-19T06:37:21.593Z,8.48
2023-01-19T06:39:48.010Z,8.93
2023-01-19T06:42:14.539Z,8.82
2023-01-19T06:44:47.257Z,8.85
2023-01-19T06:47:16.390Z,8.40
2023-01-19T06:49:43.657Z,6.72
2023-01-19T06:52:11.453Z,8.07
2023-01-19T06:54:38.022Z,8.63
2023-01-19T06:57:04.859Z,8.07
2023-01-19T06:59:31.798Z,7.55
2023-01-19T07:01:59.142Z,7.47
2023-01-19T07:04:26.987Z,7.43
2023-01-19T07:06:53.493Z,7.53
2023-01-19T07:09:20.383Z,7.57
2023-01-19T07:11:48.168Z,7.90
2023-01-19T07:14:15.542Z,7.32
2023-01-19T07:16:42.369Z,6.63
2023-01-19T07:19:10.673Z,7.25
2023-01-19T07:21:37.472Z,6.72
2023-01-19T07:24:03.967Z,6.95
2023-01-19T07:26:30.897Z,6.68
2023-01-19T07:28:57.630Z,5.55
2023-01-19T07:31:24.158Z,5.38
2023-01-19T07:33:50.859Z,5.22
2023-01-19T07:36:17.461Z,6.10
2023-01-19T07:38:44.127Z,5.47
2023-01-19T07:41:11.123Z,6.15
2023-01-19T07:43:37.852Z,5.70
2023-01-19T07:46:06.197Z,6.50
2023-01-19T07:48:32.761Z,5.55
2023-01-19T07:51:01.235Z,5.22
2023-01-19T07:53:27.755Z,5.50
2023-01-19T07:55:56.519Z,4.95
2023-01-19T07:58:26.546Z,4.70
2023-01-19T08:00:53.375Z,4.45
2023-01-19T08:03:20.330Z,4.82
2023-01-19T08:05:50.504Z,4.60
2023-01-19T08:08:17.315Z,5.40
2023-01-19T08:10:43.920Z,6.63
2023-01-19T08:13:10.424Z,7.40
2023-01-19T08:15:38.713Z,6.93
2023-01-19T08:18:06.197Z,7.40
2023-01-19T08:20:32.798Z,7.72
2023-01-19T08:23:02.922Z,9.23
2023-01-19T08:25:42.315Z,8.60
2023-01-19T08:28:09.264Z,8.25
2023-01-19T08:33:36.431Z,7.97
2023-01-19T08:36:02.888Z,8.07
2023-01-19T08:38:29.321Z,6.70
2023-01-19T08:40:55.673Z,7.55
2023-01-19T08:43:21.998Z,7.30
2023-01-19T08:45:53.386Z,7.60
2023-01-19T08:48:23.408Z,7.40
2023-01-19T08:50:51.165Z,6.75
2023-01-19T08:53:21.011Z,6.60
2023-01-19T08:55:47.373Z,6.53
2023-01-19T08:58:13.675Z,6.90
2023-01-19T09:00:40.163Z,6.50
2023-01-19T09:03:08.628Z,6.72
2023-01-19T09:05:38.800Z,6.43
2023-01-19T09:08:08.218Z,5.78
2023-01-19T09:10:37.743Z,5.00
2023-01-19T09:13:05.649Z,5.45
2023-01-19T09:15:33.915Z,4.70
2023-01-19T09:18:01.114Z,4.30
2023-01-19T09:20:30.935Z,4.63
2023-01-19T09:22:58.325Z,4.85
2023-01-19T09:25:25.402Z,4.57
2023-01-19T09:27:52.016Z,4.05
2023-01-19T09:30:19.059Z,4.00
2023-01-19T09:32:45.899Z,3.20
2023-01-19T09:35:12.825Z,3.22
2023-01-19T09:37:39.431Z,3.10
2023-01-19T09:40:06.395Z,4.28
2023-01-19T09:42:43.673Z,4.43
2023-01-19T09:45:39.260Z,3.50
2023-01-19T09:48:26.602Z,4.28
2023-01-19T09:50:55.665Z,4.82
2023-01-19T09:53:47.313Z,4.70
2023-01-19T09:56:15.827Z,4.13
2023-01-19T09:58:42.466Z,3.97
2023-01-19T10:01:15.711Z,4.43
2023-01-19T10:03:42.109Z,3.92
2023-01-19T10:06:13.475Z,3.70
2023-01-19T10:09:05.141Z,4.20
2023-01-19T10:11:53.634Z,3.85
2023-01-19T10:14:34.161Z,4.65
2023-01-19T10:17:06.462Z,5.22
2023-01-19T10:19:40.182Z,4.30
2023-01-19T10:22:33.275Z,4.15
2023-01-19T10:25:05.783Z,4.90
2023-01-19T10:27:34.443Z,4.10
2023-01-19T10:30:01.821Z,3.88
2023-01-19T10:32:33.935Z,5.15
2023-01-19T10:35:01.176Z,4.85
2023-01-19T10:37:30.624Z,4.63
2023-01-19T10:40:09.258Z,4.10
2023-01-19T10:42:37.172Z,4.13
2023-01-19T10:45:04.951Z,3.90
2023-01-19T10:47:36.272Z,4.30
2023-01-19T10:50:23.788Z,4.35
2023-01-19T10:52:56.228Z,4.63
2023-01-19T10:55:29.621Z,4.38
2023-01-19T10:57:57.201Z,4.18
2023-01-19T11:00:42.993Z,4.40
2023-01-19T11:03:29.486Z,3.95
2023-01-19T11:06:19.968Z,3.83
2023-01-19T11:08:51.165Z,3.95
2023-01-19T11:11:19.710Z,4.32
2023-01-19T11:14:12.078Z,3.75
2023-01-19T11:16:39.953Z,3.83
2023-01-19T11:19:17.250Z,4.32
2023-01-19T11:21:43.643Z,4.25
2023-01-19T11:24:14.637Z,3.85
2023-01-19T11:26:48.005Z,3.95
2023-01-19T11:29:22.221Z,3.35
2023-01-19T11:31:49.707Z,4.28
2023-01-19T11:34:34.018Z,4.30
2023-01-19T11:37:04.560Z,3.83
2023-01-19T11:39:44.879Z,4.05
2023-01-19T11:42:13.038Z,4.40
2023-01-19T11:44:46.686Z,2.97
2023-01-19T11:47:23.394Z,2.95
2023-01-19T11:49:58.552Z,3.58
2023-01-19T11:52:57.560Z,2.85
2023-01-19T11:55:39.584Z,3.17
2023-01-19T11:58:15.742Z,2.80
2023-01-19T12:01:04.072Z,2.60
2023-01-19T12:04:09.136Z,3.10
2023-01-19T12:06:44.385Z,3.10
2023-01-19T12:09:10.703Z,3.00
2023-01-19T12:11:43.866Z,2.95
2023-01-19T12:14:34.513Z,2.38
2023-01-19T12:17:05.520Z,2.72
2023-01-19T12:19:46.317Z,2.25
2023-01-19T12:22:17.665Z,3.08
2023-01-19T12:24:54.782Z,2.03
2023-01-19T12:27:40.956Z,3.47
2023-01-19T12:30:21.573Z,2.90
2023-01-19T12:32:48.181Z,2.53
2023-01-19T12:36:00.637Z,2.58
2023-01-19T12:39:00.998Z,2.10
2023-01-19T12:41:30.753Z,2.63
2023-01-19T12:44:12.321Z,2.65
2023-01-19T12:46:41.821Z,2.55
2023-01-19T12:49:26.876Z,2.30
2023-01-19T12:52:17.532Z,2.78
2023-01-19T12:54:49.854Z,2.78
2023-01-19T12:57:28.214Z,2.78
2023-01-19T13:00:06.565Z,2.33
2023-01-19T13:02:47.912Z,2.83
2023-01-19T13:05:14.450Z,2.95
2023-01-19T13:08:05.553Z,3.08
2023-01-19T13:10:53.927Z,2.92
2023-01-19T13:13:22.116Z,3.60
2023-01-19T13:15:48.866Z,3.25
2023-01-19T13:18:28.310Z,3.05
2023-01-19T13:21:00.409Z,2.88
2023-01-19T13:23:52.307Z,2.70
2023-01-19T13:26:19.867Z,3.45
2023-01-19T13:29:30.333Z,4.00
2023-01-19T13:32:08.058Z,3.17
2023-01-19T13:34:45.157Z,3.55
2023-01-19T13:37:38.768Z,4.00
2023-01-19T13:40:05.889Z,3.28
2023-01-19T13:42:41.317Z,3.30
2023-01-19T13:45:41.334Z,3.53
2023-01-19T13:48:14.574Z,3.30
2023-01-19T13:50:41.057Z,3.15
2023-01-19T13:53:18.788Z,3.33
2023-01-19T13:55:45.203Z,3.30
2023-01-19T13:58:22.491Z,3.00
2023-01-19T14:00:48.911Z,3.03
2023-01-19T14:03:18.425Z,3.25
2023-01-19T14:05:45.139Z,3.67
2023-01-19T14:08:15.183Z,3.47
2023-01-19T14:11:02.031Z,3.22
2023-01-19T14:13:31.295Z,3.33
2023-01-19T14:16:01.322Z,2.90
2023-01-19T14:18:30.860Z,3.47
2023-01-19T14:21:07.765Z,3.70
2023-01-19T14:23:37.238Z,3.78
2023-01-19T14:26:04.090Z,4.07
2023-01-19T14:28:43.296Z,3.88
2023-01-19T14:36:41.898Z,4.25
2023-01-19T14:39:22.158Z,4.25
2023-01-19T14:41:52.726Z,4.30
2023-01-19T14:44:25.658Z,3.90
2023-01-19T14:46:52.460Z,3.95
2023-01-19T14:49:47.267Z,4.30
2023-01-19T14:52:25.698Z,3.90
2023-01-19T14:54:54.039Z,4.10
2023-01-19T14:57:20.665Z,2.95
2023-01-19T14:59:49.620Z,3.60
2023-01-19T15:02:20.520Z,3.50
2023-01-19T15:04:53.843Z,3.28
2023-01-19T15:07:22.631Z,3.22
2023-01-19T15:09:49.999Z,3.47
2023-01-19T15:12:18.214Z,4.28
2023-01-19T15:14:45.482Z,3.80
2023-01-19T15:17:25.545Z,4.05
2023-01-19T15:19:53.692Z,4.57
2023-01-19T15:22:22.405Z,4.85
2023-01-19T15:24:49.747Z,4.97
2023-01-19T15:27:16.460Z,5.80
2023-01-19T15:29:43.151Z,6.10
2023-01-19T15:32:14.147Z,6.78
2023-01-19T15:34:41.864Z,7.38
2023-01-19T15:37:08.779Z,7.63
2023-01-19T15:39:35.336Z,7.22
2023-01-19T15:42:02.108Z,8.25
2023-01-19T15:44:29.728Z,9.55
2023-01-19T15:46:57.424Z,10.75
2023-01-19T15:49:24.030Z,10.00
2023-01-19T15:51:50.628Z,10.43
2023-01-19T15:54:18.362Z,9.80
2023-01-19T15:56:45.076Z,9.88
2023-01-19T15:59:11.573Z,11.13
2023-01-19T16:01:39.926Z,10.90
2023-01-19T16:04:07.988Z,12.35
2023-01-19T16:06:34.565Z,12.20
2023-01-19T16:09:01.786Z,13.00
2023-01-19T16:11:33.356Z,13.82
2023-01-19T16:14:00.153Z,13.02
2023-01-19T16:16:28.132Z,14.23
2023-01-19T16:18:55.694Z,14.18
2023-01-19T16:21:22.484Z,15.27
2023-01-19T16:23:49.012Z,13.98
2023-01-19T16:26:30.396Z,15.70
2023-01-19T16:29:02.653Z,15.50
2023-01-19T16:31:29.399Z,15.20
2023-01-19T16:33:56.181Z,15.90
2023-01-19T16:36:28.650Z,15.25
2023-01-19T16:38:59.532Z,16.00
2023-01-19T16:41:25.999Z,15.75
2023-01-19T16:43:53.844Z,15.48
2023-01-19T16:46:23.147Z,15.77
2023-01-19T16:48:50.982Z,15.30
2023-01-19T16:51:18.288Z,14.00
2023-01-19T16:53:45.299Z,15.30
2023-01-19T16:56:14.647Z,15.82
2023-01-19T16:58:41.915Z,15.52
2023-01-19T17:01:19.733Z,15.32
2023-01-19T17:03:47.264Z,14.98
2023-01-19T17:06:16.145Z,14.95
2023-01-19T17:08:42.652Z,16.02
2023-01-19T17:11:19.386Z,16.60
2023-01-19T17:13:47.210Z,16.35
2023-01-19T17:16:13.753Z,16.80
2023-01-19T17:18:40.396Z,17.00
2023-01-19T17:21:08.767Z,18.70
2023-01-19T17:23:37.368Z,16.85
2023-01-19T17:26:05.180Z,16.80
2023-01-19T17:28:31.616Z,16.80
2023-01-19T17:31:08.125Z,17.42
2023-01-19T17:33:35.167Z,17.48
2023-01-19T17:36:06.588Z,17.88
2023-01-19T17:38:33.118Z,18.80
2023-01-19T17:40:59.647Z,19.75
2023-01-19T17:43:26.373Z,20.58
2023-01-19T17:45:52.928Z,18.85
2023-01-19T17:48:19.466Z,19.00
2023-01-19T17:50:46.116Z,19.63
2023-01-19T17:53:12.674Z,20.77
2023-01-19T17:55:39.105Z,20.65
2023-01-19T17:58:05.605Z,20.15
2023-01-19T18:00:32.306Z,20.33
2023-01-19T18:02:58.906Z,21.35
2023-01-19T18:05:25.451Z,21.45
2023-01-19T18:07:51.916Z,22.35
2023-01-19T18:10:18.532Z,21.95
2023-01-19T18:12:45.296Z,20.25
2023-01-19T18:15:12.450Z,20.58
2023-01-19T18:17:39.204Z,21.48
2023-01-19T18:20:06.282Z,19.80
2023-01-19T18:22:33.416Z,22.23
2023-01-19T18:25:01.634Z,22.48
2023-01-19T18:27:34.107Z,22.38
2023-01-19T18:30:00.612Z,21.90
2023-01-19T18:32:27.364Z,21.35
2023-01-19T18:34:55.594Z,23.08
2023-01-19T18:37:22.116Z,21.58
2023-01-19T18:39:48.685Z,23.10
2023-01-19T18:42:15.284Z,22.08
2023-01-19T18:44:41.883Z,22.05
2023-01-19T18:47:08.504Z,23.08
2023-01-19T18:49:35.122Z,23.13
2023-01-19T18:52:03.898Z,23.23
2023-01-19T18:54:30.471Z,23.05
2023-01-19T18:56:57.059Z,24.50
2023-01-19T18:59:23.511Z,23.42
2023-01-19T19:01:50.080Z,22.85
2023-01-19T19:04:16.764Z,23.52
2023-01-19T19:06:43.216Z,24.05
2023-01-19T19:09:09.730Z,23.55
2023-01-19T19:11:36.549Z,25.23
2023-01-19T19:14:03.302Z,25.58
2023-01-19T19:16:31.633Z,24.75
2023-01-19T19:18:59.571Z,25.45
2023-01-19T19:21:26.434Z,25.67
2023-01-19T19:23:57.920Z,24.05
2023-01-19T19:26:25.757Z,26.50
2023-01-19T19:28:54.453Z,26.33
2023-01-19T19:31:22.958Z,24.85
2023-01-19T19:33:50.997Z,24.67
2023-01-19T19:36:18.627Z,25.23
2023-01-19T19:38:47.464Z,24.35
2023-01-19T19:41:26.852Z,25.73
2023-01-19T19:43:54.462Z,25.70
2023-01-19T19:46:24.163Z,25.38
2023-01-19T19:48:50.889Z,26.75
2023-01-19T19:51:22.693Z,25.48
2023-01-19T19:53:51.860Z,27.23
2023-01-19T19:56:21.589Z,25.65
2023-01-19T19:58:49.054Z,26.73
2023-01-19T20:01:32.535Z,27.90
2023-01-19T20:04:08.213Z,26.35
2023-01-19T20:06:38.815Z,25.75
2023-01-19T20:09:07.350Z,26.23
2023-01-19T20:11:35.228Z,27.15
2023-01-19T20:14:06.119Z,26.65
2023-01-19T20:16:32.947Z,27.20
2023-01-19T20:18:59.407Z,27.13
2023-01-19T20:21:28.655Z,28.00
2023-01-19T20:23:56.683Z,28.42
2023-01-19T20:26:26.609Z,29.40
2023-01-19T20:28:54.147Z,29.02
2023-01-19T20:31:21.904Z,29.33
2023-01-19T20:33:49.823Z,28.67
2023-01-19T20:36:16.334Z,28.80
2023-01-19T20:38:42.760Z,29.38
2023-01-19T20:41:11.592Z,28.67
2023-01-19T20:43:38.065Z,29.48
2023-01-19T20:46:05.281Z,29.70
2023-01-19T20:48:32.052Z,29.15
2023-01-19T20:51:05.400Z,29.05
2023-01-19T20:53:32.448Z,27.98
2023-01-19T20:55:58.884Z,27.85
2023-01-19T20:58:25.448Z,27.75
2023-01-19T21:00:51.875Z,28.88
2023-01-19T21:03:18.395Z,27.33
2023-01-19T21:05:47.244Z,27.80
2023-01-19T21:08:14.678Z,27.70
2023-01-19T21:10:41.735Z,27.67
2023-01-19T21:13:08.170Z,28.45
2023-01-19T21:15:34.809Z,28.65
2023-01-19T21:18:01.812Z,29.60
2023-01-19T21:20:29.808Z,30.25
2023-01-19T21:22:56.913Z,27.50
2023-01-19T21:25:23.290Z,28.88
2023-01-19T21:27:50.741Z,31.50
2023-01-19T21:30:18.262Z,29.70
2023-01-19T21:32:44.610Z,28.83
2023-01-19T21:35:11.196Z,29.80
2023-01-19T21:37:37.657Z,29.58
2023-01-19T21:40:04.492Z,29.60
2023-01-19T21:42:30.799Z,28.70
2023-01-19T21:44:57.372Z,29.33
2023-01-19T21:47:23.674Z,30.75
2023-01-19T21:49:50.017Z,31.02
2023-01-19T21:52:16.338Z,30.52
2023-01-19T21:54:43.478Z,30.92
2023-01-19T21:57:09.894Z,30.83
2023-01-19T21:59:36.189Z,33.33
2023-01-19T22:02:02.687Z,29.98
2023-01-19T22:04:29.698Z,29.95
2023-01-19T22:06:56.032Z,30.35
2023-01-19T22:09:22.377Z,30.08
2023-01-19T22:11:48.747Z,29.88
2023-01-19T22:14:15.068Z,28.70
2023-01-19T22:16:41.440Z,29.40
2023-01-19T22:19:12.556Z,29.30
2023-01-19T22:21:39.770Z,29.85
2023-01-19T22:24:06.667Z,28.95
2023-01-19T22:26:34.097Z,30.10
2023-01-19T22:29:01.594Z,28.70
2023-01-19T22:31:29.388Z,27.42
2023-01-19T22:33:56.435Z,27.95
2023-01-19T22:36:30.942Z,28.92
2023-01-19T22:39:06.464Z,27.83
2023-01-19T22:41:35.621Z,28.77
2023-01-19T22:44:05.226Z,27.20
2023-01-19T22:46:33.619Z,28.00
2023-01-19T22:49:00.497Z,28.80
2023-01-19T22:51:28.441Z,27.60
2023-01-19T22:53:54.910Z,29.95
2023-01-19T22:56:23.925Z,28.67
2023-01-19T22:58:51.061Z,28.42
2023-01-19T23:01:20.229Z,28.65
2023-01-19T23:03:46.792Z,28.15
2023-01-19T23:06:16.276Z,27.90
2023-01-19T23:08:43.282Z,29.23
2023-01-19T23:11:15.658Z,29.42
2023-01-19T23:13:42.661Z,27.25
2023-01-19T23:16:10.418Z,27.77
2023-01-19T23:18:37.554Z,27.25
2023-01-19T23:21:04.825Z,27.73
2023-01-19T23:23:32.005Z,27.77
2023-01-19T23:26:10.736Z,27.58
2023-01-19T23:28:37.376Z,28.17
2023-01-19T23:31:23.984Z,26.88
2023-01-19T23:33:52.393Z,25.42
2023-01-19T23:36:19.818Z,27.23
2023-01-19T23:38:51.413Z,28.33
2023-01-19T23:41:18.643Z,29.02
2023-01-19T23:43:45.437Z,27.95
2023-01-19T23:46:12.750Z,27.42
2023-01-19T23:48:39.401Z,26.60
2023-01-19T23:51:11.231Z,27.23
2023-01-19T23:53:37.728Z,28.13
2023-01-19T23:56:17.376Z,27.33
2023-01-19T23:58:45.574Z,27.83
